sensor_id;sensor_type;location;lat;lon;timestamp;P1;durP1;ratioP1;P2;durP2;ratioP2
77136;SDS011;66102;48.542;-2.970;2023-01-01T00:01:58;5.93;;;1.30;;
77136;SDS011;66102;48.542;-2.970;2023-01-01T00:04:24;8.20;;;1.50;;
77136;SDS011;66102;48.542;-2.970;2023-01-01T00:06:51;9.85;;;2.13;;
77136;SDS011;66102;48.542;-2.970;2023-01-01T00:09:17;6.68;;;1.27;;
77136;SDS011;66102;48.542;-2.970;2023-01-01T00:12:01;5.20;;;1.23;;
77136;SDS011;66102;48.542;-2.970;2023-01-01T00:14:27;5.70;;;1.35;;
77136;SDS011;66102;48.542;-2.970;2023-01-01T00:16:54;7.07;;;1.20;;
77136;SDS011;66102;48.542;-2.970;2023-01-01T00:19:20;7.25;;;1.30;;
77136;SDS011;66102;48.542;-2.970;2023-01-01T00:21:46;7.38;;;1.55;;
77136;SDS011;66102;48.542;-2.970;2023-01-01T00:24:12;10.65;;;1.80;;
77136;SDS011;66102;48.542;-2.970;2023-01-01T00:26:38;8.95;;;1.38;;
77136;SDS011;66102;48.542;-2.970;2023-01-01T00:29:04;9.57;;;1.60;;
77136;SDS011;66102;48.542;-2.970;2023-01-01T00:31:30;10.07;;;2.05;;
77136;SDS011;66102;48.542;-2.970;2023-01-01T00:33:57;8.40;;;2.00;;
77136;SDS011;66102;48.542;-2.970;2023-01-01T00:36:24;12.75;;;2.08;;
77136;SDS011;66102;48.542;-2.970;2023-01-01T00:38:50;13.18;;;1.92;;
77136;SDS011;66102;48.542;-2.970;2023-01-01T00:41:16;10.73;;;2.35;;
77136;SDS011;66102;48.542;-2.970;2023-01-01T00:43:43;11.98;;;1.52;;
77136;SDS011;66102;48.542;-2.970;2023-01-01T00:46:09;12.90;;;1.55;;
77136;SDS011;66102;48.542;-2.970;2023-01-01T00:48:36;12.68;;;1.80;;
77136;SDS011;66102;48.542;-2.970;2023-01-01T00:51:02;15.32;;;2.00;;
77136;SDS011;66102;48.542;-2.970;2023-01-01T00:53:28;10.13;;;1.60;;
77136;SDS011;66102;48.542;-2.970;2023-01-01T00:55:54;10.27;;;1.67;;
77136;SDS011;66102;48.542;-2.970;2023-01-01T00:58:21;9.00;;;1.60;;
77136;SDS011;66102;48.542;-2.970;2023-01-01T01:00:48;13.23;;;2.35;;
77136;SDS011;66102;48.542;-2.970;2023-01-01T01:03:14;13.10;;;2.80;;
77136;SDS011;66102;48.542;-2.970;2023-01-01T01:08:19;10.13;;;1.88;;
77136;SDS011;66102;48.542;-2.970;2023-01-01T01:10:45;8.45;;;2.00;;
77136;SDS011;66102;48.542;-2.970;2023-01-01T01:13:11;9.05;;;1.80;;
77136;SDS011;66102;48.542;-2.970;2023-01-01T01:15:37;10.48;;;1.77;;
77136;SDS011;66102;48.542;-2.970;2023-01-01T01:18:03;10.80;;;2.15;;
77136;SDS011;66102;48.542;-2.970;2023-01-01T01:20:29;15.00;;;1.92;;
77136;SDS011;66102;48.542;-2.970;2023-01-01T01:22:55;9.73;;;1.45;;
77136;SDS011;66102;48.542;-2.970;2023-01-01T01:25:21;11.65;;;2.17;;
77136;SDS011;66102;48.542;-2.970;2023-01-01T01:27:47;10.90;;;1.80;;
77136;SDS011;66102;48.542;-2.970;2023-01-01T01:30:13;8.32;;;1.45;;
77136;SDS011;66102;48.542;-2.970;2023-01-01T01:32:39;11.90;;;1.80;;
77136;SDS011;66102;48.542;-2.970;2023-01-01T01:35:06;11.07;;;1.65;;
77136;SDS011;66102;48.542;-2.970;2023-01-01T01:37:32;15.95;;;2.08;;
77136;SDS011;66102;48.542;-2.970;2023-01-01T01:39:58;17.83;;;2.15;;
77136;SDS011;66102;48.542;-2.970;2023-01-01T01:42:24;24.58;;;2.72;;
77136;SDS011;66102;48.542;-2.970;2023-01-01T01:44:58;16.23;;;2.47;;
77136;SDS011;66102;48.542;-2.970;2023-01-01T01:49:55;12.02;;;1.58;;
77136;SDS011;66102;48.542;-2.970;2023-01-01T01:52:22;7.32;;;1.92;;
77136;SDS011;66102;48.542;-2.970;2023-01-01T01:54:48;14.20;;;2.25;;
77136;SDS011;66102;48.542;-2.970;2023-01-01T01:57:14;9.05;;;2.10;;
77136;SDS011;66102;48.542;-2.970;2023-01-01T01:59:43;7.47;;;1.77;;
77136;SDS011;66102;48.542;-2.970;2023-01-01T02:02:17;8.93;;;1.83;;
77136;SDS011;66102;48.542;-2.970;2023-01-01T02:04:47;12.50;;;2.03;;
77136;SDS011;66102;48.542;-2.970;2023-01-01T02:07:13;11.10;;;2.03;;
77136;SDS011;66102;48.542;-2.970;2023-01-01T02:09:40;12.80;;;2.15;;
77136;SDS011;66102;48.542;-2.970;2023-01-01T02:12:06;13.23;;;2.88;;
77136;SDS011;66102;48.542;-2.970;2023-01-01T02:14:32;13.18;;;1.90;;
77136;SDS011;66102;48.542;-2.970;2023-01-01T02:17:01;15.82;;;2.97;;
77136;SDS011;66102;48.542;-2.970;2023-01-01T02:19:36;12.52;;;1.88;;
77136;SDS011;66102;48.542;-2.970;2023-01-01T02:27:20;12.07;;;2.25;;
77136;SDS011;66102;48.542;-2.970;2023-01-01T02:29:54;13.15;;;1.85;;
77136;SDS011;66102;48.542;-2.970;2023-01-01T02:35:07;20.08;;;2.30;;
77136;SDS011;66102;48.542;-2.970;2023-01-01T02:37:54;13.35;;;1.90;;
77136;SDS011;66102;48.542;-2.970;2023-01-01T02:40:22;12.32;;;2.05;;
77136;SDS011;66102;48.542;-2.970;2023-01-01T02:42:48;13.75;;;2.40;;
77136;SDS011;66102;48.542;-2.970;2023-01-01T02:45:15;10.18;;;2.17;;
77136;SDS011;66102;48.542;-2.970;2023-01-01T02:47:41;10.27;;;2.10;;
77136;SDS011;66102;48.542;-2.970;2023-01-01T02:50:09;13.15;;;1.77;;
77136;SDS011;66102;48.542;-2.970;2023-01-01T02:58:22;15.55;;;2.05;;
77136;SDS011;66102;48.542;-2.970;2023-01-01T03:01:26;12.15;;;1.65;;
77136;SDS011;66102;48.542;-2.970;2023-01-01T03:03:55;11.80;;;1.77;;
77136;SDS011;66102;48.542;-2.970;2023-01-01T03:06:25;14.02;;;2.38;;
77136;SDS011;66102;48.542;-2.970;2023-01-01T03:11:35;8.52;;;1.90;;
77136;SDS011;66102;48.542;-2.970;2023-01-01T03:16:35;14.77;;;1.95;;
77136;SDS011;66102;48.542;-2.970;2023-01-01T03:19:07;11.45;;;2.20;;
77136;SDS011;66102;48.542;-2.970;2023-01-01T03:21:41;12.10;;;2.47;;
77136;SDS011;66102;48.542;-2.970;2023-01-01T03:25:09;15.23;;;2.63;;
77136;SDS011;66102;48.542;-2.970;2023-01-01T03:29:30;13.02;;;2.20;;
77136;SDS011;66102;48.542;-2.970;2023-01-01T03:31:57;17.83;;;3.60;;
77136;SDS011;66102;48.542;-2.970;2023-01-01T03:34:29;18.55;;;2.92;;
77136;SDS011;66102;48.542;-2.970;2023-01-01T03:36:57;19.40;;;3.22;;
77136;SDS011;66102;48.542;-2.970;2023-01-01T03:39:29;13.18;;;2.63;;
77136;SDS011;66102;48.542;-2.970;2023-01-01T03:42:43;20.42;;;3.13;;
77136;SDS011;66102;48.542;-2.970;2023-01-01T03:44:47;25.10;;;3.38;;
77136;SDS011;66102;48.542;-2.970;2023-01-01T03:47:15;23.95;;;4.43;;
77136;SDS011;66102;48.542;-2.970;2023-01-01T03:49:41;16.92;;;3.05;;
77136;SDS011;66102;48.542;-2.970;2023-01-01T03:52:18;15.20;;;3.63;;
77136;SDS011;66102;48.542;-2.970;2023-01-01T04:03:06;29.08;;;3.97;;
77136;SDS011;66102;48.542;-2.970;2023-01-01T04:05:24;21.80;;;3.78;;
77136;SDS011;66102;48.542;-2.970;2023-01-01T04:07:51;18.25;;;3.05;;
77136;SDS011;66102;48.542;-2.970;2023-01-01T04:10:18;15.32;;;2.30;;
77136;SDS011;66102;48.542;-2.970;2023-01-01T04:12:45;21.85;;;3.92;;
77136;SDS011;66102;48.542;-2.970;2023-01-01T04:15:11;14.93;;;3.20;;
77136;SDS011;66102;48.542;-2.970;2023-01-01T04:17:38;18.45;;;3.85;;
77136;SDS011;66102;48.542;-2.970;2023-01-01T04:20:04;19.10;;;3.00;;
77136;SDS011;66102;48.542;-2.970;2023-01-01T04:22:31;17.17;;;2.35;;
77136;SDS011;66102;48.542;-2.970;2023-01-01T04:24:57;18.83;;;3.83;;
77136;SDS011;66102;48.542;-2.970;2023-01-01T04:27:23;15.98;;;2.97;;
77136;SDS011;66102;48.542;-2.970;2023-01-01T04:29:49;14.20;;;2.72;;
77136;SDS011;66102;48.542;-2.970;2023-01-01T04:32:16;18.92;;;2.88;;
77136;SDS011;66102;48.542;-2.970;2023-01-01T04:34:42;14.00;;;2.60;;
77136;SDS011;66102;48.542;-2.970;2023-01-01T04:37:08;19.23;;;3.03;;
77136;SDS011;66102;48.542;-2.970;2023-01-01T04:39:34;24.13;;;3.25;;
77136;SDS011;66102;48.542;-2.970;2023-01-01T04:42:00;15.32;;;2.85;;
77136;SDS011;66102;48.542;-2.970;2023-01-01T04:44:26;17.67;;;3.00;;
77136;SDS011;66102;48.542;-2.970;2023-01-01T04:46:52;22.55;;;3.08;;
77136;SDS011;66102;48.542;-2.970;2023-01-01T04:49:18;16.10;;;3.40;;
77136;SDS011;66102;48.542;-2.970;2023-01-01T04:51:44;12.38;;;2.50;;
77136;SDS011;66102;48.542;-2.970;2023-01-01T04:54:10;15.20;;;2.50;;
77136;SDS011;66102;48.542;-2.970;2023-01-01T04:56:37;17.05;;;2.38;;
77136;SDS011;66102;48.542;-2.970;2023-01-01T04:59:03;19.80;;;3.28;;
77136;SDS011;66102;48.542;-2.970;2023-01-01T05:01:29;16.88;;;2.88;;
77136;SDS011;66102;48.542;-2.970;2023-01-01T05:03:55;14.82;;;3.00;;
77136;SDS011;66102;48.542;-2.970;2023-01-01T05:06:22;18.98;;;3.95;;
77136;SDS011;66102;48.542;-2.970;2023-01-01T05:08:48;20.40;;;3.05;;
77136;SDS011;66102;48.542;-2.970;2023-01-01T05:11:16;25.85;;;3.63;;
77136;SDS011;66102;48.542;-2.970;2023-01-01T05:13:43;18.90;;;3.35;;
77136;SDS011;66102;48.542;-2.970;2023-01-01T05:16:10;19.30;;;3.05;;
77136;SDS011;66102;48.542;-2.970;2023-01-01T05:18:37;20.40;;;2.97;;
77136;SDS011;66102;48.542;-2.970;2023-01-01T05:21:04;22.40;;;3.50;;
77136;SDS011;66102;48.542;-2.970;2023-01-01T05:23:31;18.98;;;2.78;;
77136;SDS011;66102;48.542;-2.970;2023-01-01T05:25:57;16.88;;;2.78;;
77136;SDS011;66102;48.542;-2.970;2023-01-01T05:28:23;26.20;;;4.30;;
77136;SDS011;66102;48.542;-2.970;2023-01-01T05:30:50;19.10;;;2.97;;
77136;SDS011;66102;48.542;-2.970;2023-01-01T05:33:16;19.35;;;3.20;;
77136;SDS011;66102;48.542;-2.970;2023-01-01T05:35:42;21.48;;;3.35;;
77136;SDS011;66102;48.542;-2.970;2023-01-01T05:38:08;15.02;;;2.65;;
77136;SDS011;66102;48.542;-2.970;2023-01-01T05:40:37;22.42;;;2.88;;
77136;SDS011;66102;48.542;-2.970;2023-01-01T05:43:03;18.85;;;2.75;;
77136;SDS011;66102;48.542;-2.970;2023-01-01T05:45:29;24.33;;;3.20;;
77136;SDS011;66102;48.542;-2.970;2023-01-01T05:47:55;17.90;;;2.95;;
77136;SDS011;66102;48.542;-2.970;2023-01-01T05:50:21;23.67;;;3.80;;
77136;SDS011;66102;48.542;-2.970;2023-01-01T05:52:47;17.90;;;2.95;;
77136;SDS011;66102;48.542;-2.970;2023-01-01T05:55:14;16.92;;;3.00;;
77136;SDS011;66102;48.542;-2.970;2023-01-01T05:57:40;24.48;;;4.03;;
77136;SDS011;66102;48.542;-2.970;2023-01-01T06:00:06;20.27;;;3.45;;
77136;SDS011;66102;48.542;-2.970;2023-01-01T06:02:32;18.67;;;2.60;;
77136;SDS011;66102;48.542;-2.970;2023-01-01T06:04:58;22.27;;;3.63;;
77136;SDS011;66102;48.542;-2.970;2023-01-01T06:07:24;19.48;;;3.50;;
77136;SDS011;66102;48.542;-2.970;2023-01-01T06:09:50;20.27;;;4.25;;
77136;SDS011;66102;48.542;-2.970;2023-01-01T06:12:16;22.77;;;3.25;;
77136;SDS011;66102;48.542;-2.970;2023-01-01T06:14:42;18.13;;;3.20;;
77136;SDS011;66102;48.542;-2.970;2023-01-01T06:17:08;23.33;;;4.05;;
77136;SDS011;66102;48.542;-2.970;2023-01-01T06:19:34;24.55;;;3.78;;
77136;SDS011;66102;48.542;-2.970;2023-01-01T06:22:00;21.00;;;3.10;;
77136;SDS011;66102;48.542;-2.970;2023-01-01T06:24:26;22.35;;;4.07;;
77136;SDS011;66102;48.542;-2.970;2023-01-01T06:26:52;19.27;;;3.63;;
77136;SDS011;66102;48.542;-2.970;2023-01-01T06:29:18;18.25;;;2.63;;
77136;SDS011;66102;48.542;-2.970;2023-01-01T06:31:44;19.20;;;3.60;;
77136;SDS011;66102;48.542;-2.970;2023-01-01T06:34:10;25.52;;;4.25;;
77136;SDS011;66102;48.542;-2.970;2023-01-01T06:36:36;24.23;;;3.33;;
77136;SDS011;66102;48.542;-2.970;2023-01-01T06:39:03;20.88;;;3.08;;
77136;SDS011;66102;48.542;-2.970;2023-01-01T06:41:29;20.88;;;3.70;;
77136;SDS011;66102;48.542;-2.970;2023-01-01T06:43:55;21.38;;;3.33;;
77136;SDS011;66102;48.542;-2.970;2023-01-01T06:46:26;21.30;;;3.97;;
77136;SDS011;66102;48.542;-2.970;2023-01-01T06:48:53;22.00;;;3.97;;
77136;SDS011;66102;48.542;-2.970;2023-01-01T06:51:20;23.23;;;3.42;;
77136;SDS011;66102;48.542;-2.970;2023-01-01T06:53:46;25.33;;;4.72;;
77136;SDS011;66102;48.542;-2.970;2023-01-01T06:56:13;20.45;;;3.08;;
77136;SDS011;66102;48.542;-2.970;2023-01-01T06:58:39;22.40;;;3.95;;
77136;SDS011;66102;48.542;-2.970;2023-01-01T07:01:06;19.80;;;3.60;;
77136;SDS011;66102;48.542;-2.970;2023-01-01T07:03:33;19.95;;;3.83;;
77136;SDS011;66102;48.542;-2.970;2023-01-01T07:05:59;22.58;;;3.42;;
77136;SDS011;66102;48.542;-2.970;2023-01-01T07:08:25;23.77;;;3.78;;
77136;SDS011;66102;48.542;-2.970;2023-01-01T07:10:51;18.13;;;2.95;;
77136;SDS011;66102;48.542;-2.970;2023-01-01T07:13:17;19.75;;;3.90;;
77136;SDS011;66102;48.542;-2.970;2023-01-01T07:15:43;17.75;;;2.53;;
77136;SDS011;66102;48.542;-2.970;2023-01-01T07:18:09;24.77;;;3.80;;
77136;SDS011;66102;48.542;-2.970;2023-01-01T07:20:35;18.83;;;3.17;;
77136;SDS011;66102;48.542;-2.970;2023-01-01T07:23:01;24.45;;;3.90;;
77136;SDS011;66102;48.542;-2.970;2023-01-01T07:25:27;19.17;;;3.08;;
77136;SDS011;66102;48.542;-2.970;2023-01-01T07:27:53;21.92;;;2.97;;
77136;SDS011;66102;48.542;-2.970;2023-01-01T07:30:19;26.38;;;3.25;;
77136;SDS011;66102;48.542;-2.970;2023-01-01T07:32:45;18.45;;;3.10;;
77136;SDS011;66102;48.542;-2.970;2023-01-01T07:35:11;20.70;;;2.90;;
77136;SDS011;66102;48.542;-2.970;2023-01-01T07:37:37;22.10;;;3.08;;
77136;SDS011;66102;48.542;-2.970;2023-01-01T07:40:03;20.63;;;3.05;;
77136;SDS011;66102;48.542;-2.970;2023-01-01T07:42:30;18.30;;;2.92;;
77136;SDS011;66102;48.542;-2.970;2023-01-01T07:44:56;17.85;;;3.28;;
77136;SDS011;66102;48.542;-2.970;2023-01-01T07:47:25;20.92;;;3.72;;
77136;SDS011;66102;48.542;-2.970;2023-01-01T07:49:51;18.67;;;3.25;;
77136;SDS011;66102;48.542;-2.970;2023-01-01T07:52:17;17.42;;;3.70;;
77136;SDS011;66102;48.542;-2.970;2023-01-01T07:54:44;18.85;;;3.10;;
77136;SDS011;66102;48.542;-2.970;2023-01-01T07:57:10;19.92;;;3.03;;
77136;SDS011;66102;48.542;-2.970;2023-01-01T07:59:36;14.82;;;3.17;;
77136;SDS011;66102;48.542;-2.970;2023-01-01T08:02:02;23.08;;;2.97;;
77136;SDS011;66102;48.542;-2.970;2023-01-01T08:04:28;21.42;;;4.25;;
77136;SDS011;66102;48.542;-2.970;2023-01-01T08:06:54;19.73;;;3.03;;
77136;SDS011;66102;48.542;-2.970;2023-01-01T08:09:20;29.48;;;3.35;;
77136;SDS011;66102;48.542;-2.970;2023-01-01T08:11:46;16.98;;;2.75;;
77136;SDS011;66102;48.542;-2.970;2023-01-01T08:14:13;25.70;;;3.47;;
77136;SDS011;66102;48.542;-2.970;2023-01-01T08:16:39;17.02;;;3.42;;
77136;SDS011;66102;48.542;-2.970;2023-01-01T08:19:05;23.10;;;4.45;;
77136;SDS011;66102;48.542;-2.970;2023-01-01T08:21:31;17.38;;;3.42;;
77136;SDS011;66102;48.542;-2.970;2023-01-01T08:23:57;17.80;;;3.40;;
77136;SDS011;66102;48.542;-2.970;2023-01-01T08:26:30;17.27;;;3.10;;
77136;SDS011;66102;48.542;-2.970;2023-01-01T08:28:56;15.15;;;2.72;;
77136;SDS011;66102;48.542;-2.970;2023-01-01T08:31:23;19.17;;;4.00;;
77136;SDS011;66102;48.542;-2.970;2023-01-01T08:33:49;20.58;;;3.28;;
77136;SDS011;66102;48.542;-2.970;2023-01-01T08:36:15;19.30;;;3.22;;
77136;SDS011;66102;48.542;-2.970;2023-01-01T08:38:42;20.27;;;3.88;;
77136;SDS011;66102;48.542;-2.970;2023-01-01T08:41:08;20.15;;;3.83;;
77136;SDS011;66102;48.542;-2.970;2023-01-01T08:43:34;18.98;;;2.95;;
77136;SDS011;66102;48.542;-2.970;2023-01-01T08:46:00;21.15;;;3.72;;
77136;SDS011;66102;48.542;-2.970;2023-01-01T08:48:26;18.83;;;3.17;;
77136;SDS011;66102;48.542;-2.970;2023-01-01T08:50:53;21.60;;;3.60;;
77136;SDS011;66102;48.542;-2.970;2023-01-01T08:53:19;23.52;;;3.60;;
77136;SDS011;66102;48.542;-2.970;2023-01-01T08:55:54;24.98;;;3.60;;
77136;SDS011;66102;48.542;-2.970;2023-01-01T08:58:20;23.08;;;4.53;;
77136;SDS011;66102;48.542;-2.970;2023-01-01T09:00:46;23.85;;;3.28;;
77136;SDS011;66102;48.542;-2.970;2023-01-01T09:03:12;24.27;;;3.25;;
77136;SDS011;66102;48.542;-2.970;2023-01-01T09:05:38;18.88;;;2.33;;
77136;SDS011;66102;48.542;-2.970;2023-01-01T09:08:09;33.88;;;3.10;;
77136;SDS011;66102;48.542;-2.970;2023-01-01T09:10:35;26.25;;;3.47;;
77136;SDS011;66102;48.542;-2.970;2023-01-01T09:13:01;19.92;;;3.33;;
77136;SDS011;66102;48.542;-2.970;2023-01-01T09:15:27;28.00;;;3.85;;
77136;SDS011;66102;48.542;-2.970;2023-01-01T09:17:53;20.85;;;2.97;;
77136;SDS011;66102;48.542;-2.970;2023-01-01T09:20:19;18.80;;;4.00;;
77136;SDS011;66102;48.542;-2.970;2023-01-01T09:22:45;17.67;;;3.08;;
77136;SDS011;66102;48.542;-2.970;2023-01-01T09:25:11;18.10;;;3.35;;
77136;SDS011;66102;48.542;-2.970;2023-01-01T09:27:37;19.95;;;3.10;;
77136;SDS011;66102;48.542;-2.970;2023-01-01T09:30:04;19.33;;;3.45;;
77136;SDS011;66102;48.542;-2.970;2023-01-01T09:32:30;23.27;;;3.05;;
77136;SDS011;66102;48.542;-2.970;2023-01-01T09:34:56;21.55;;;3.40;;
77136;SDS011;66102;48.542;-2.970;2023-01-01T09:37:24;18.20;;;3.50;;
77136;SDS011;66102;48.542;-2.970;2023-01-01T09:39:50;25.13;;;3.83;;
77136;SDS011;66102;48.542;-2.970;2023-01-01T09:45:24;22.30;;;3.13;;
77136;SDS011;66102;48.542;-2.970;2023-01-01T09:47:52;20.20;;;2.80;;
77136;SDS011;66102;48.542;-2.970;2023-01-01T09:50:21;18.35;;;3.47;;
77136;SDS011;66102;48.542;-2.970;2023-01-01T09:55:21;23.35;;;3.92;;
77136;SDS011;66102;48.542;-2.970;2023-01-01T09:57:49;25.55;;;4.25;;
77136;SDS011;66102;48.542;-2.970;2023-01-01T10:00:16;26.02;;;3.35;;
77136;SDS011;66102;48.542;-2.970;2023-01-01T10:02:48;29.27;;;4.32;;
77136;SDS011;66102;48.542;-2.970;2023-01-01T10:10:37;17.95;;;3.63;;
77136;SDS011;66102;48.542;-2.970;2023-01-01T10:15:37;20.55;;;3.00;;
77136;SDS011;66102;48.542;-2.970;2023-01-01T10:18:05;24.25;;;3.50;;
77136;SDS011;66102;48.542;-2.970;2023-01-01T10:20:43;17.92;;;2.53;;
77136;SDS011;66102;48.542;-2.970;2023-01-01T10:23:21;19.05;;;3.05;;
77136;SDS011;66102;48.542;-2.970;2023-01-01T10:25:49;17.05;;;2.60;;
77136;SDS011;66102;48.542;-2.970;2023-01-01T10:28:20;15.27;;;2.67;;
77136;SDS011;66102;48.542;-2.970;2023-01-01T10:30:48;14.43;;;2.47;;
77136;SDS011;66102;48.542;-2.970;2023-01-01T10:33:14;14.10;;;2.10;;
77136;SDS011;66102;48.542;-2.970;2023-01-01T10:35:42;11.45;;;2.60;;
77136;SDS011;66102;48.542;-2.970;2023-01-01T10:38:09;15.18;;;2.08;;
77136;SDS011;66102;48.542;-2.970;2023-01-01T10:40:37;16.30;;;2.55;;
77136;SDS011;66102;48.542;-2.970;2023-01-01T10:43:05;12.77;;;1.67;;
77136;SDS011;66102;48.542;-2.970;2023-01-01T10:45:44;9.55;;;2.50;;
77136;SDS011;66102;48.542;-2.970;2023-01-01T10:48:13;8.43;;;1.90;;
77136;SDS011;66102;48.542;-2.970;2023-01-01T10:53:22;11.00;;;1.80;;
77136;SDS011;66102;48.542;-2.970;2023-01-01T10:55:49;9.55;;;1.83;;
77136;SDS011;66102;48.542;-2.970;2023-01-01T10:59:30;8.07;;;1.42;;
77136;SDS011;66102;48.542;-2.970;2023-01-01T11:01:32;9.30;;;1.40;;
77136;SDS011;66102;48.542;-2.970;2023-01-01T11:03:59;6.60;;;1.63;;
77136;SDS011;66102;48.542;-2.970;2023-01-01T11:06:31;19.13;;;2.50;;
77136;SDS011;66102;48.542;-2.970;2023-01-01T11:08:59;11.45;;;1.60;;
77136;SDS011;66102;48.542;-2.970;2023-01-01T11:11:33;13.95;;;1.83;;
77136;SDS011;66102;48.542;-2.970;2023-01-01T11:14:01;8.85;;;1.58;;
77136;SDS011;66102;48.542;-2.970;2023-01-01T11:16:32;11.70;;;1.40;;
77136;SDS011;66102;48.542;-2.970;2023-01-01T11:19:03;13.02;;;1.80;;
77136;SDS011;66102;48.542;-2.970;2023-01-01T11:21:30;14.20;;;3.00;;
77136;SDS011;66102;48.542;-2.970;2023-01-01T11:24:18;7.57;;;2.33;;
77136;SDS011;66102;48.542;-2.970;2023-01-01T11:26:43;15.38;;;2.35;;
77136;SDS011;66102;48.542;-2.970;2023-01-01T11:31:42;10.65;;;1.65;;
77136;SDS011;66102;48.542;-2.970;2023-01-01T11:36:47;9.75;;;1.83;;
77136;SDS011;66102;48.542;-2.970;2023-01-01T11:39:21;11.90;;;2.00;;
77136;SDS011;66102;48.542;-2.970;2023-01-01T11:41:52;10.95;;;1.63;;
77136;SDS011;66102;48.542;-2.970;2023-01-01T11:46:47;11.68;;;1.83;;
77136;SDS011;66102;48.542;-2.970;2023-01-01T11:49:14;12.88;;;1.80;;
77136;SDS011;66102;48.542;-2.970;2023-01-01T11:51:45;11.40;;;1.70;;
77136;SDS011;66102;48.542;-2.970;2023-01-01T11:54:30;10.70;;;1.73;;
77136;SDS011;66102;48.542;-2.970;2023-01-01T11:57:03;8.90;;;1.17;;
77136;SDS011;66102;48.542;-2.970;2023-01-01T11:59:43;9.93;;;1.40;;
77136;SDS011;66102;48.542;-2.970;2023-01-01T12:02:17;12.88;;;1.58;;
77136;SDS011;66102;48.542;-2.970;2023-01-01T12:04:52;7.35;;;1.75;;
77136;SDS011;66102;48.542;-2.970;2023-01-01T12:07:21;11.95;;;2.15;;
77136;SDS011;66102;48.542;-2.970;2023-01-01T12:09:59;11.60;;;2.30;;
77136;SDS011;66102;48.542;-2.970;2023-01-01T12:12:31;7.47;;;1.45;;
77136;SDS011;66102;48.542;-2.970;2023-01-01T12:17:42;12.23;;;1.98;;
77136;SDS011;66102;48.542;-2.970;2023-01-01T12:22:38;12.05;;;2.47;;
77136;SDS011;66102;48.542;-2.970;2023-01-01T12:25:04;9.63;;;1.77;;
77136;SDS011;66102;48.542;-2.970;2023-01-01T12:30:02;11.35;;;2.20;;
77136;SDS011;66102;48.542;-2.970;2023-01-01T12:40:37;10.68;;;1.63;;
77136;SDS011;66102;48.542;-2.970;2023-01-01T12:43:07;10.77;;;2.55;;
77136;SDS011;66102;48.542;-2.970;2023-01-01T12:45:48;12.57;;;2.72;;
77136;SDS011;66102;48.542;-2.970;2023-01-01T12:50:58;8.73;;;2.30;;
77136;SDS011;66102;48.542;-2.970;2023-01-01T12:58:31;10.07;;;2.30;;
77136;SDS011;66102;48.542;-2.970;2023-01-01T13:01:00;9.90;;;2.13;;
77136;SDS011;66102;48.542;-2.970;2023-01-01T13:03:30;10.73;;;1.70;;
77136;SDS011;66102;48.542;-2.970;2023-01-01T13:05:58;11.00;;;2.13;;
77136;SDS011;66102;48.542;-2.970;2023-01-01T13:08:25;12.30;;;2.05;;
77136;SDS011;66102;48.542;-2.970;2023-01-01T13:10:52;9.60;;;1.75;;
77136;SDS011;66102;48.542;-2.970;2023-01-01T13:13:19;9.90;;;1.60;;
77136;SDS011;66102;48.542;-2.970;2023-01-01T13:15:52;12.30;;;2.35;;
77136;SDS011;66102;48.542;-2.970;2023-01-01T13:18:20;10.23;;;2.10;;
77136;SDS011;66102;48.542;-2.970;2023-01-01T13:20:54;12.70;;;2.08;;
77136;SDS011;66102;48.542;-2.970;2023-01-01T13:28:41;6.60;;;1.42;;
77136;SDS011;66102;48.542;-2.970;2023-01-01T13:31:07;8.35;;;1.63;;
77136;SDS011;66102;48.542;-2.970;2023-01-01T13:33:33;9.00;;;1.63;;
77136;SDS011;66102;48.542;-2.970;2023-01-01T13:38:52;8.15;;;1.60;;
77136;SDS011;66102;48.542;-2.970;2023-01-01T13:43:51;7.72;;;1.88;;
77136;SDS011;66102;48.542;-2.970;2023-01-01T13:46:18;9.32;;;1.60;;
77136;SDS011;66102;48.542;-2.970;2023-01-01T13:48:54;7.43;;;1.50;;
77136;SDS011;66102;48.542;-2.970;2023-01-01T14:04:10;11.10;;;1.80;;
77136;SDS011;66102;48.542;-2.970;2023-01-01T14:06:41;9.55;;;1.60;;
77136;SDS011;66102;48.542;-2.970;2023-01-01T14:11:34;13.15;;;2.30;;
77136;SDS011;66102;48.542;-2.970;2023-01-01T14:14:00;9.05;;;1.60;;
77136;SDS011;66102;48.542;-2.970;2023-01-01T14:16:26;11.85;;;1.73;;
77136;SDS011;66102;48.542;-2.970;2023-01-01T14:18:57;11.05;;;1.77;;
77136;SDS011;66102;48.542;-2.970;2023-01-01T14:21:29;9.07;;;1.67;;
77136;SDS011;66102;48.542;-2.970;2023-01-01T14:23:57;7.45;;;1.50;;
77136;SDS011;66102;48.542;-2.970;2023-01-01T14:26:25;8.68;;;1.80;;
77136;SDS011;66102;48.542;-2.970;2023-01-01T14:28:55;7.65;;;1.42;;
77136;SDS011;66102;48.542;-2.970;2023-01-01T14:31:23;7.78;;;1.67;;
77136;SDS011;66102;48.542;-2.970;2023-01-01T14:33:50;4.82;;;1.20;;
77136;SDS011;66102;48.542;-2.970;2023-01-01T14:38:47;5.78;;;1.48;;
77136;SDS011;66102;48.542;-2.970;2023-01-01T14:41:32;7.63;;;1.65;;
77136;SDS011;66102;48.542;-2.970;2023-01-01T14:44:03;14.50;;;1.83;;
77136;SDS011;66102;48.542;-2.970;2023-01-01T14:46:30;7.95;;;1.60;;
77136;SDS011;66102;48.542;-2.970;2023-01-01T14:48:58;11.38;;;2.00;;
77136;SDS011;66102;48.542;-2.970;2023-01-01T14:51:26;4.53;;;1.20;;
77136;SDS011;66102;48.542;-2.970;2023-01-01T14:53:57;9.38;;;2.13;;
77136;SDS011;66102;48.542;-2.970;2023-01-01T14:56:34;7.57;;;1.60;;
77136;SDS011;66102;48.542;-2.970;2023-01-01T15:01:36;7.15;;;2.13;;
77136;SDS011;66102;48.542;-2.970;2023-01-01T15:04:05;8.52;;;2.10;;
77136;SDS011;66102;48.542;-2.970;2023-01-01T15:06:40;12.30;;;1.67;;
77136;SDS011;66102;48.542;-2.970;2023-01-01T15:09:09;5.65;;;1.55;;
77136;SDS011;66102;48.542;-2.970;2023-01-01T15:11:39;8.23;;;2.10;;
77136;SDS011;66102;48.542;-2.970;2023-01-01T15:14:26;6.18;;;1.70;;
77136;SDS011;66102;48.542;-2.970;2023-01-01T15:16:58;10.80;;;2.50;;
77136;SDS011;66102;48.542;-2.970;2023-01-01T15:19:25;7.95;;;2.25;;
77136;SDS011;66102;48.542;-2.970;2023-01-01T15:21:51;9.50;;;1.88;;
77136;SDS011;66102;48.542;-2.970;2023-01-01T15:24:18;6.07;;;1.60;;
77136;SDS011;66102;48.542;-2.970;2023-01-01T15:26:50;8.93;;;2.35;;
77136;SDS011;66102;48.542;-2.970;2023-01-01T15:29:26;8.07;;;2.17;;
77136;SDS011;66102;48.542;-2.970;2023-01-01T15:31:53;8.70;;;1.58;;
77136;SDS011;66102;48.542;-2.970;2023-01-01T15:36:48;4.85;;;1.10;;
77136;SDS011;66102;48.542;-2.970;2023-01-01T15:39:14;7.38;;;1.75;;
77136;SDS011;66102;48.542;-2.970;2023-01-01T15:41:41;5.55;;;1.30;;
77136;SDS011;66102;48.542;-2.970;2023-01-01T15:47:12;9.63;;;1.65;;
77136;SDS011;66102;48.542;-2.970;2023-01-01T15:49:39;6.88;;;1.23;;
77136;SDS011;66102;48.542;-2.970;2023-01-01T15:52:11;5.45;;;1.15;;
77136;SDS011;66102;48.542;-2.970;2023-01-01T15:54:39;8.18;;;1.75;;
77136;SDS011;66102;48.542;-2.970;2023-01-01T15:57:16;6.85;;;1.45;;
77136;SDS011;66102;48.542;-2.970;2023-01-01T15:59:44;8.25;;;1.77;;
77136;SDS011;66102;48.542;-2.970;2023-01-01T16:04:36;7.18;;;2.20;;
77136;SDS011;66102;48.542;-2.970;2023-01-01T16:07:04;8.98;;;2.22;;
77136;SDS011;66102;48.542;-2.970;2023-01-01T16:09:30;5.00;;;1.52;;
77136;SDS011;66102;48.542;-2.970;2023-01-01T16:11:57;5.82;;;1.98;;
77136;SDS011;66102;48.542;-2.970;2023-01-01T16:14:23;10.35;;;2.40;;
77136;SDS011;66102;48.542;-2.970;2023-01-01T16:16:51;12.80;;;3.47;;
77136;SDS011;66102;48.542;-2.970;2023-01-01T16:19:18;7.70;;;2.58;;
77136;SDS011;66102;48.542;-2.970;2023-01-01T16:21:46;7.43;;;1.88;;
77136;SDS011;66102;48.542;-2.970;2023-01-01T16:24:12;9.68;;;2.00;;
77136;SDS011;66102;48.542;-2.970;2023-01-01T16:26:39;6.55;;;1.70;;
77136;SDS011;66102;48.542;-2.970;2023-01-01T16:29:06;5.43;;;1.58;;
77136;SDS011;66102;48.542;-2.970;2023-01-01T16:31:32;8.07;;;2.00;;
77136;SDS011;66102;48.542;-2.970;2023-01-01T16:33:58;7.05;;;1.92;;